sensor_id;sensor_type;location;lat;lon;timestamp;pressure;altitude;pressure_sealevel;temperature
11926;BMP180;6022;48.768;18.608;2023-08-01T00:01:43;97866.53;;;16.80
11926;BMP180;6022;48.768;18.608;2023-08-01T00:04:10;97867.31;;;16.80
11926;BMP180;6022;48.768;18.608;2023-08-01T00:06:38;97860.38;;;16.73
11926;BMP180;6022;48.768;18.608;2023-08-01T00:09:05;97854.16;;;16.58
11926;BMP180;6022;48.768;18.608;2023-08-01T00:11:32;97843.00;;;16.42
11926;BMP180;6022;48.768;18.608;2023-08-01T00:13:59;97839.28;;;16.36
11926;BMP180;6022;48.768;18.608;2023-08-01T00:16:36;97849.56;;;16.44
11926;BMP180;6022;48.768;18.608;2023-08-01T00:19:03;97852.50;;;16.49
11926;BMP180;6022;48.768;18.608;2023-08-01T00:21:30;97852.66;;;16.48
11926;BMP180;6022;48.768;18.608;2023-08-01T00:23:58;97855.88;;;16.50
11926;BMP180;6022;48.768;18.608;2023-08-01T00:26:25;97852.66;;;16.48
11926;BMP180;6022;48.768;18.608;2023-08-01T00:28:53;97851.41;;;16.52
11926;BMP180;6022;48.768;18.608;2023-08-01T00:31:20;97843.81;;;16.42
11926;BMP180;6022;48.768;18.608;2023-08-01T00:33:47;97853.72;;;16.28
11926;BMP180;6022;48.768;18.608;2023-08-01T00:36:14;97838.41;;;16.01
11926;BMP180;6022;48.768;18.608;2023-08-01T00:38:41;97842.72;;;16.01
11926;BMP180;6022;48.768;18.608;2023-08-01T00:41:10;97823.25;;;15.90
11926;BMP180;6022;48.768;18.608;2023-08-01T00:44:02;97817.53;;;15.79
11926;BMP180;6022;48.768;18.608;2023-08-01T00:46:29;97803.88;;;15.88
11926;BMP180;6022;48.768;18.608;2023-08-01T00:48:56;97806.50;;;15.79
11926;BMP180;6022;48.768;18.608;2023-08-01T00:51:26;97799.69;;;15.70
11926;BMP180;6022;48.768;18.608;2023-08-01T00:53:57;97802.00;;;15.63
11926;BMP180;6022;48.768;18.608;2023-08-01T00:56:25;97805.84;;;15.77
11926;BMP180;6022;48.768;18.608;2023-08-01T00:58:52;97793.72;;;15.79
11926;BMP180;6022;48.768;18.608;2023-08-01T01:01:19;97794.28;;;15.73
11926;BMP180;6022;48.768;18.608;2023-08-01T01:03:47;97784.13;;;15.81
11926;BMP180;6022;48.768;18.608;2023-08-01T01:06:29;97784.72;;;15.75
11926;BMP180;6022;48.768;18.608;2023-08-01T01:08:59;97769.72;;;15.62
11926;BMP180;6022;48.768;18.608;2023-08-01T01:11:26;97775.06;;;15.69
11926;BMP180;6022;48.768;18.608;2023-08-01T01:13:53;97755.56;;;15.68
11926;BMP180;6022;48.768;18.608;2023-08-01T01:16:21;97750.03;;;15.46
11926;BMP180;6022;48.768;18.608;2023-08-01T01:18:48;97756.28;;;15.60
11926;BMP180;6022;48.768;18.608;2023-08-01T01:21:15;97749.84;;;15.74
11926;BMP180;6022;48.768;18.608;2023-08-01T01:23:43;97746.44;;;15.83
11926;BMP180;6022;48.768;18.608;2023-08-01T01:26:11;97737.66;;;15.68
11926;BMP180;6022;48.768;18.608;2023-08-01T01:28:39;97738.56;;;15.76
11926;BMP180;6022;48.768;18.608;2023-08-01T01:31:07;97743.81;;;15.75
11926;BMP180;6022;48.768;18.608;2023-08-01T01:33:35;97734.63;;;15.82
11926;BMP180;6022;48.768;18.608;2023-08-01T01:36:02;97725.75;;;15.93
11926;BMP180;6022;48.768;18.608;2023-08-01T01:38:29;97721.59;;;15.92
11926;BMP180;6022;48.768;18.608;2023-08-01T01:40:56;97722.75;;;15.81
11926;BMP180;6022;48.768;18.608;2023-08-01T01:43:23;97725.31;;;15.98
11926;BMP180;6022;48.768;18.608;2023-08-01T01:45:50;97711.66;;;15.89
11926;BMP180;6022;48.768;18.608;2023-08-01T01:48:17;97701.06;;;15.85
11926;BMP180;6022;48.768;18.608;2023-08-01T01:50:44;97711.59;;;15.82
11926;BMP180;6022;48.768;18.608;2023-08-01T01:53:12;97708.78;;;15.92
11926;BMP180;6022;48.768;18.608;2023-08-01T01:55:39;97702.75;;;15.93
11926;BMP180;6022;48.768;18.608;2023-08-01T01:58:07;97698.94;;;15.97
11926;BMP180;6022;48.768;18.608;2023-08-01T02:00:34;97693.75;;;16.07
11926;BMP180;6022;48.768;18.608;2023-08-01T02:03:01;97682.41;;;16.09
11926;BMP180;6022;48.768;18.608;2023-08-01T02:05:30;97693.00;;;16.14
11926;BMP180;6022;48.768;18.608;2023-08-01T02:07:57;97685.03;;;16.17
11926;BMP180;6022;48.768;18.608;2023-08-01T02:10:24;97683.81;;;16.21
11926;BMP180;6022;48.768;18.608;2023-08-01T02:12:51;97679.00;;;16.18
11926;BMP180;6022;48.768;18.608;2023-08-01T02:15:18;97678.59;;;16.13
11926;BMP180;6022;48.768;18.608;2023-08-01T02:17:45;97678.84;;;16.20
11926;BMP180;6022;48.768;18.608;2023-08-01T02:20:12;97673.06;;;16.18
11926;BMP180;6022;48.768;18.608;2023-08-01T02:22:40;97668.47;;;16.21
11926;BMP180;6022;48.768;18.608;2023-08-01T02:25:07;97669.13;;;16.23
11926;BMP180;6022;48.768;18.608;2023-08-01T02:27:34;97662.69;;;16.19
11926;BMP180;6022;48.768;18.608;2023-08-01T02:30:01;97666.19;;;16.18
11926;BMP180;6022;48.768;18.608;2023-08-01T02:32:29;97672.63;;;16.22
11926;BMP180;6022;48.768;18.608;2023-08-01T02:34:57;97665.25;;;16.19
11926;BMP180;6022;48.768;18.608;2023-08-01T02:37:24;97669.41;;;16.20
11926;BMP180;6022;48.768;18.608;2023-08-01T02:39:51;97667.94;;;16.18
11926;BMP180;6022;48.768;18.608;2023-08-01T02:42:18;97658.44;;;16.10
11926;BMP180;6022;48.768;18.608;2023-08-01T02:44:45;97654.84;;;16.03
11926;BMP180;6022;48.768;18.608;2023-08-01T02:47:12;97661.22;;;15.99
11926;BMP180;6022;48.768;18.608;2023-08-01T02:49:39;97658.16;;;15.96
11926;BMP180;6022;48.768;18.608;2023-08-01T02:52:06;97656.09;;;15.99
11926;BMP180;6022;48.768;18.608;2023-08-01T02:54:34;97657.06;;;15.98
11926;BMP180;6022;48.768;18.608;2023-08-01T02:57:01;97650.34;;;15.97
11926;BMP180;6022;48.768;18.608;2023-08-01T02:59:28;97652.59;;;16.00
11926;BMP180;6022;48.768;18.608;2023-08-01T03:01:55;97646.41;;;15.86
11926;BMP180;6022;48.768;18.608;2023-08-01T03:04:22;97653.44;;;15.84
11926;BMP180;6022;48.768;18.608;2023-08-01T03:07:09;97651.34;;;15.87
11926;BMP180;6022;48.768;18.608;2023-08-01T03:09:36;97648.16;;;15.68
11926;BMP180;6022;48.768;18.608;2023-08-01T03:12:04;97648.22;;;15.76
11926;BMP180;6022;48.768;18.608;2023-08-01T03:14:31;97651.94;;;15.81
11926;BMP180;6022;48.768;18.608;2023-08-01T03:16:58;97650.63;;;15.77
11926;BMP180;6022;48.768;18.608;2023-08-01T03:19:26;97637.59;;;15.63
11926;BMP180;6022;48.768;18.608;2023-08-01T03:21:53;97645.19;;;15.72
11926;BMP180;6022;48.768;18.608;2023-08-01T03:24:20;97640.66;;;15.84
11926;BMP180;6022;48.768;18.608;2023-08-01T03:26:47;97628.59;;;15.76
11926;BMP180;6022;48.768;18.608;2023-08-01T03:29:14;97633.53;;;15.78
11926;BMP180;6022;48.768;18.608;2023-08-01T03:31:41;97632.00;;;15.85
11926;BMP180;6022;48.768;18.608;2023-08-01T03:34:08;97629.81;;;15.89
11926;BMP180;6022;48.768;18.608;2023-08-01T03:36:36;97633.63;;;15.86
11926;BMP180;6022;48.768;18.608;2023-08-01T03:39:03;97633.09;;;15.82
11926;BMP180;6022;48.768;18.608;2023-08-01T03:41:32;97633.16;;;15.90
11926;BMP180;6022;48.768;18.608;2023-08-01T03:43:59;97631.13;;;15.93
11926;BMP180;6022;48.768;18.608;2023-08-01T03:46:26;97625.44;;;15.82
11926;BMP180;6022;48.768;18.608;2023-08-01T03:48:53;97617.53;;;15.76
11926;BMP180;6022;48.768;18.608;2023-08-01T03:51:21;97633.31;;;15.88
11926;BMP180;6022;48.768;18.608;2023-08-01T03:53:48;97631.63;;;15.97
11926;BMP180;6022;48.768;18.608;2023-08-01T03:56:33;97623.53;;;15.84
11926;BMP180;6022;48.768;18.608;2023-08-01T03:59:00;97633.22;;;15.98
11926;BMP180;6022;48.768;18.608;2023-08-01T04:01:27;97624.28;;;16.02
11926;BMP180;6022;48.768;18.608;2023-08-01T04:03:54;97633.03;;;15.91
11926;BMP180;6022;48.768;18.608;2023-08-01T04:06:21;97629.91;;;16.05
11926;BMP180;6022;48.768;18.608;2023-08-01T04:08:48;97632.53;;;16.13
11926;BMP180;6022;48.768;18.608;2023-08-01T04:11:16;97623.91;;;16.14
11926;BMP180;6022;48.768;18.608;2023-08-01T04:13:44;97631.31;;;16.17
11926;BMP180;6022;48.768;18.608;2023-08-01T04:16:11;97623.84;;;16.24
11926;BMP180;6022;48.768;18.608;2023-08-01T04:18:38;97628.47;;;16.20
11926;BMP180;6022;48.768;18.608;2023-08-01T04:21:08;97627.56;;;16.29
11926;BMP180;6022;48.768;18.608;2023-08-01T04:23:35;97626.56;;;16.22
11926;BMP180;6022;48.768;18.608;2023-08-01T04:26:02;97627.41;;;16.30
11926;BMP180;6022;48.768;18.608;2023-08-01T04:28:34;97626.28;;;16.58
11926;BMP180;6022;48.768;18.608;2023-08-01T04:31:01;97632.44;;;16.73
11926;BMP180;6022;48.768;18.608;2023-08-01T04:33:28;97632.31;;;16.82
11926;BMP180;6022;48.768;18.608;2023-08-01T04:35:56;97634.28;;;16.88
11926;BMP180;6022;48.768;18.608;2023-08-01T04:38:23;97631.59;;;16.98
11926;BMP180;6022;48.768;18.608;2023-08-01T04:40:51;97625.72;;;17.13
11926;BMP180;6022;48.768;18.608;2023-08-01T04:54:41;97626.94;;;19.81
11926;BMP180;6022;48.768;18.608;2023-08-01T04:57:09;97623.19;;;19.83
11926;BMP180;6022;48.768;18.608;2023-08-01T04:59:36;97622.47;;;19.97
11926;BMP180;6022;48.768;18.608;2023-08-01T05:02:03;97627.25;;;20.37
11926;BMP180;6022;48.768;18.608;2023-08-01T05:04:31;97621.50;;;20.12
11926;BMP180;6022;48.768;18.608;2023-08-01T05:07:08;97624.66;;;19.78
11926;BMP180;6022;48.768;18.608;2023-08-01T05:09:37;97627.22;;;19.33
11926;BMP180;6022;48.768;18.608;2023-08-01T05:12:05;97620.16;;;19.05
11926;BMP180;6022;48.768;18.608;2023-08-01T05:14:32;97623.78;;;18.73
11926;BMP180;6022;48.768;18.608;2023-08-01T05:17:00;97624.22;;;18.22
11926;BMP180;6022;48.768;18.608;2023-08-01T05:19:27;97625.50;;;17.87
11926;BMP180;6022;48.768;18.608;2023-08-01T05:21:54;97616.22;;;17.86
11926;BMP180;6022;48.768;18.608;2023-08-01T05:24:22;97617.31;;;17.83
11926;BMP180;6022;48.768;18.608;2023-08-01T05:26:49;97618.59;;;17.79
11926;BMP180;6022;48.768;18.608;2023-08-01T05:29:16;97620.72;;;17.84
11926;BMP180;6022;48.768;18.608;2023-08-01T05:31:43;97619.41;;;17.56
11926;BMP180;6022;48.768;18.608;2023-08-01T05:34:11;97628.06;;;17.55
11926;BMP180;6022;48.768;18.608;2023-08-01T05:36:38;97630.31;;;17.50
11926;BMP180;6022;48.768;18.608;2023-08-01T05:39:16;97623.72;;;17.40
11926;BMP180;6022;48.768;18.608;2023-08-01T05:42:05;97616.66;;;17.34
11926;BMP180;6022;48.768;18.608;2023-08-01T05:44:48;97627.06;;;17.33
11926;BMP180;6022;48.768;18.608;2023-08-01T05:47:20;97624.50;;;17.33
11926;BMP180;6022;48.768;18.608;2023-08-01T05:49:59;97620.97;;;17.26
11926;BMP180;6022;48.768;18.608;2023-08-01T05:52:30;97615.50;;;17.29
11926;BMP180;6022;48.768;18.608;2023-08-01T05:55:09;97610.38;;;17.29
11926;BMP180;6022;48.768;18.608;2023-08-01T05:57:49;97616.00;;;17.32
11926;BMP180;6022;48.768;18.608;2023-08-01T06:00:31;97600.63;;;17.32
11926;BMP180;6022;48.768;18.608;2023-08-01T06:03:09;97606.41;;;17.42
11926;BMP180;6022;48.768;18.608;2023-08-01T06:05:44;97606.75;;;17.47
11926;BMP180;6022;48.768;18.608;2023-08-01T06:08:17;97602.25;;;17.49
11926;BMP180;6022;48.768;18.608;2023-08-01T06:10:54;97598.88;;;17.48
11926;BMP180;6022;48.768;18.608;2023-08-01T06:13:30;97603.69;;;17.59
11926;BMP180;6022;48.768;18.608;2023-08-01T06:16:04;97592.81;;;17.65
11926;BMP180;6022;48.768;18.608;2023-08-01T06:19:06;97596.31;;;17.72
11926;BMP180;6022;48.768;18.608;2023-08-01T06:21:39;97596.97;;;17.74
11926;BMP180;6022;48.768;18.608;2023-08-01T06:24:35;97604.03;;;17.88
11926;BMP180;6022;48.768;18.608;2023-08-01T06:27:21;97593.59;;;17.97
11926;BMP180;6022;48.768;18.608;2023-08-01T06:29:55;97587.03;;;18.03
11926;BMP180;6022;48.768;18.608;2023-08-01T06:32:32;97599.22;;;18.09
11926;BMP180;6022;48.768;18.608;2023-08-01T06:34:59;97586.06;;;18.12
11926;BMP180;6022;48.768;18.608;2023-08-01T06:37:26;97599.53;;;18.14
11926;BMP180;6022;48.768;18.608;2023-08-01T06:39:58;97591.84;;;18.21
11926;BMP180;6022;48.768;18.608;2023-08-01T06:42:26;97589.91;;;18.23
11926;BMP180;6022;48.768;18.608;2023-08-01T06:44:57;97595.66;;;18.33
11926;BMP180;6022;48.768;18.608;2023-08-01T06:47:25;97587.28;;;18.39
11926;BMP180;6022;48.768;18.608;2023-08-01T06:49:52;97584.03;;;18.45
11926;BMP180;6022;48.768;18.608;2023-08-01T06:52:22;97582.94;;;18.48
11926;BMP180;6022;48.768;18.608;2023-08-01T06:54:50;97584.34;;;18.58
11926;BMP180;6022;48.768;18.608;2023-08-01T06:57:21;97584.66;;;18.63
11926;BMP180;6022;48.768;18.608;2023-08-01T07:00:01;97583.97;;;18.69
11926;BMP180;6022;48.768;18.608;2023-08-01T07:02:28;97588.47;;;18.67
11926;BMP180;6022;48.768;18.608;2023-08-01T07:04:55;97580.44;;;18.70
11926;BMP180;6022;48.768;18.608;2023-08-01T07:07:25;97587.13;;;18.79
11926;BMP180;6022;48.768;18.608;2023-08-01T07:09:52;97580.38;;;18.86
11926;BMP180;6022;48.768;18.608;2023-08-01T07:12:22;97574.56;;;18.92
11926;BMP180;6022;48.768;18.608;2023-08-01T07:14:57;97568.09;;;18.95
11926;BMP180;6022;48.768;18.608;2023-08-01T07:17:28;97566.66;;;19.01
11926;BMP180;6022;48.768;18.608;2023-08-01T07:20:11;97564.16;;;19.15
11926;BMP180;6022;48.768;18.608;2023-08-01T07:22:38;97554.41;;;19.33
11926;BMP180;6022;48.768;18.608;2023-08-01T07:25:06;97544.16;;;19.47
11926;BMP180;6022;48.768;18.608;2023-08-01T07:27:33;97549.63;;;19.67
11926;BMP180;6022;48.768;18.608;2023-08-01T07:30:00;97545.69;;;19.78
11926;BMP180;6022;48.768;18.608;2023-08-01T07:32:29;97529.03;;;19.89
11926;BMP180;6022;48.768;18.608;2023-08-01T07:34:56;97526.56;;;20.09
11926;BMP180;6022;48.768;18.608;2023-08-01T07:37:23;97524.25;;;20.29
11926;BMP180;6022;48.768;18.608;2023-08-01T07:39:50;97526.19;;;20.84
11926;BMP180;6022;48.768;18.608;2023-08-01T07:42:17;97520.72;;;21.28
11926;BMP180;6022;48.768;18.608;2023-08-01T07:44:44;97524.94;;;22.32
11926;BMP180;6022;48.768;18.608;2023-08-01T07:47:12;97516.56;;;23.42
11926;BMP180;6022;48.768;18.608;2023-08-01T07:49:41;97512.19;;;23.55
11926;BMP180;6022;48.768;18.608;2023-08-01T07:52:09;97506.63;;;23.58
11926;BMP180;6022;48.768;18.608;2023-08-01T07:54:38;97503.41;;;23.37
11926;BMP180;6022;48.768;18.608;2023-08-01T07:57:05;97501.59;;;23.37
11926;BMP180;6022;48.768;18.608;2023-08-01T07:59:33;97492.66;;;23.27
11926;BMP180;6022;48.768;18.608;2023-08-01T08:02:01;97502.19;;;23.20
11926;BMP180;6022;48.768;18.608;2023-08-01T08:04:28;97493.22;;;23.16
11926;BMP180;6022;48.768;18.608;2023-08-01T08:06:56;97495.22;;;23.14
11926;BMP180;6022;48.768;18.608;2023-08-01T08:09:27;97496.09;;;22.75
11926;BMP180;6022;48.768;18.608;2023-08-01T08:11:54;97493.22;;;22.50
11926;BMP180;6022;48.768;18.608;2023-08-01T08:14:21;97494.34;;;22.41
11926;BMP180;6022;48.768;18.608;2023-08-01T08:16:50;97495.72;;;22.38
11926;BMP180;6022;48.768;18.608;2023-08-01T08:19:18;97491.81;;;22.54
11926;BMP180;6022;48.768;18.608;2023-08-01T08:21:45;97484.50;;;22.58
11926;BMP180;6022;48.768;18.608;2023-08-01T08:24:13;97479.69;;;22.48
11926;BMP180;6022;48.768;18.608;2023-08-01T08:26:41;97477.28;;;22.47
11926;BMP180;6022;48.768;18.608;2023-08-01T08:29:10;97473.72;;;22.48
11926;BMP180;6022;48.768;18.608;2023-08-01T08:31:37;97469.94;;;22.50
11926;BMP180;6022;48.768;18.608;2023-08-01T08:34:05;97479.63;;;22.42
11926;BMP180;6022;48.768;18.608;2023-08-01T08:36:33;97481.56;;;22.27
11926;BMP180;6022;48.768;18.608;2023-08-01T08:39:00;97488.41;;;22.14
11926;BMP180;6022;48.768;18.608;2023-08-01T08:41:30;97482.16;;;21.96
11926;BMP180;6022;48.768;18.608;2023-08-01T08:44:04;97472.44;;;21.70
11926;BMP180;6022;48.768;18.608;2023-08-01T08:47:06;97462.16;;;21.50
11926;BMP180;6022;48.768;18.608;2023-08-01T08:49:37;97464.78;;;21.56
11926;BMP180;6022;48.768;18.608;2023-08-01T08:52:07;97461.66;;;21.61
11926;BMP180;6022;48.768;18.608;2023-08-01T08:54:43;97463.81;;;21.57
11926;BMP180;6022;48.768;18.608;2023-08-01T08:57:10;97466.22;;;21.59
11926;BMP180;6022;48.768;18.608;2023-08-01T08:59:38;97458.84;;;21.56
11926;BMP180;6022;48.768;18.608;2023-08-01T09:02:06;97466.38;;;21.57
11926;BMP180;6022;48.768;18.608;2023-08-01T09:04:34;97471.13;;;21.54
11926;BMP180;6022;48.768;18.608;2023-08-01T09:07:10;97478.66;;;21.49
11926;BMP180;6022;48.768;18.608;2023-08-01T09:09:38;97482.03;;;21.49
11926;BMP180;6022;48.768;18.608;2023-08-01T09:12:06;97472.06;;;21.46
11926;BMP180;6022;48.768;18.608;2023-08-01T09:14:35;97479.63;;;21.48
11926;BMP180;6022;48.768;18.608;2023-08-01T09:17:11;97481.03;;;21.50
11926;BMP180;6022;48.768;18.608;2023-08-01T09:19:41;97476.72;;;21.57
11926;BMP180;6022;48.768;18.608;2023-08-01T09:22:13;97476.56;;;21.65
11926;BMP180;6022;48.768;18.608;2023-08-01T09:24:51;97471.22;;;21.66
11926;BMP180;6022;48.768;18.608;2023-08-01T09:27:21;97477.06;;;21.75
11926;BMP180;6022;48.768;18.608;2023-08-01T09:29:51;97468.13;;;21.77
11926;BMP180;6022;48.768;18.608;2023-08-01T09:32:19;97464.88;;;21.69
11926;BMP180;6022;48.768;18.608;2023-08-01T09:34:59;97452.13;;;21.61
11926;BMP180;6022;48.768;18.608;2023-08-01T09:37:43;97453.94;;;21.67
11926;BMP180;6022;48.768;18.608;2023-08-01T09:40:11;97443.50;;;21.75
11926;BMP180;6022;48.768;18.608;2023-08-01T09:42:43;97448.50;;;21.83
11926;BMP180;6022;48.768;18.608;2023-08-01T09:45:16;97450.94;;;21.91
11926;BMP180;6022;48.768;18.608;2023-08-01T09:47:45;97446.75;;;21.90
11926;BMP180;6022;48.768;18.608;2023-08-01T09:50:24;97446.75;;;21.90
11926;BMP180;6022;48.768;18.608;2023-08-01T09:52:51;97448.13;;;21.86
11926;BMP180;6022;48.768;18.608;2023-08-01T09:55:32;97449.28;;;21.83
11926;BMP180;6022;48.768;18.608;2023-08-01T09:58:01;97456.63;;;21.80
11926;BMP180;6022;48.768;18.608;2023-08-01T10:00:29;97458.78;;;21.76
11926;BMP180;6022;48.768;18.608;2023-08-01T10:03:00;97447.41;;;21.71
11926;BMP180;6022;48.768;18.608;2023-08-01T10:05:31;97448.19;;;21.65
11926;BMP180;6022;48.768;18.608;2023-08-01T10:08:00;97450.91;;;21.57
11926;BMP180;6022;48.768;18.608;2023-08-01T10:10:29;97445.50;;;21.31
11926;BMP180;6022;48.768;18.608;2023-08-01T10:12:57;97458.91;;;21.21
11926;BMP180;6022;48.768;18.608;2023-08-01T10:15:25;97445.59;;;21.17
11926;BMP180;6022;48.768;18.608;2023-08-01T10:17:55;97451.81;;;21.23
11926;BMP180;6022;48.768;18.608;2023-08-01T10:20:26;97447.78;;;21.20
11926;BMP180;6022;48.768;18.608;2023-08-01T10:22:54;97456.59;;;21.05
11926;BMP180;6022;48.768;18.608;2023-08-01T10:25:30;97472.19;;;20.97
11926;BMP180;6022;48.768;18.608;2023-08-01T10:28:02;97466.28;;;20.82
11926;BMP180;6022;48.768;18.608;2023-08-01T10:30:30;97485.41;;;20.73
11926;BMP180;6022;48.768;18.608;2023-08-01T10:32:59;97481.47;;;20.42
11926;BMP180;6022;48.768;18.608;2023-08-01T10:35:39;97471.44;;;20.18
11926;BMP180;6022;48.768;18.608;2023-08-01T10:38:12;97470.03;;;20.16
11926;BMP180;6022;48.768;18.608;2023-08-01T10:40:42;97492.31;;;20.23
11926;BMP180;6022;48.768;18.608;2023-08-01T10:43:23;97498.88;;;20.26
11926;BMP180;6022;48.768;18.608;2023-08-01T10:46:04;97500.84;;;20.24
11926;BMP180;6022;48.768;18.608;2023-08-01T10:48:31;97508.72;;;20.22
11926;BMP180;6022;48.768;18.608;2023-08-01T10:50:58;97523.91;;;20.17
11926;BMP180;6022;48.768;18.608;2023-08-01T10:53:25;97523.50;;;20.14
11926;BMP180;6022;48.768;18.608;2023-08-01T10:55:53;97524.88;;;20.02
11926;BMP180;6022;48.768;18.608;2023-08-01T10:58:27;97528.94;;;19.97
11926;BMP180;6022;48.768;18.608;2023-08-01T11:00:59;97541.19;;;19.95
11926;BMP180;6022;48.768;18.608;2023-08-01T11:03:40;97530.28;;;19.93
11926;BMP180;6022;48.768;18.608;2023-08-01T11:06:09;97530.03;;;19.88
11926;BMP180;6022;48.768;18.608;2023-08-01T11:08:41;97546.97;;;19.82
11926;BMP180;6022;48.768;18.608;2023-08-01T11:11:19;97550.72;;;19.72
11926;BMP180;6022;48.768;18.608;2023-08-01T11:13:55;97538.22;;;19.69
11926;BMP180;6022;48.768;18.608;2023-08-01T11:16:24;97521.41;;;19.59
11926;BMP180;6022;48.768;18.608;2023-08-01T11:18:56;97526.09;;;19.55
11926;BMP180;6022;48.768;18.608;2023-08-01T11:21:27;97540.19;;;19.45
11926;BMP180;6022;48.768;18.608;2023-08-01T11:23:57;97550.31;;;19.24
11926;BMP180;6022;48.768;18.608;2023-08-01T11:26:25;97550.06;;;19.11
11926;BMP180;6022;48.768;18.608;2023-08-01T11:28:52;97557.03;;;18.95
11926;BMP180;6022;48.768;18.608;2023-08-01T11:31:20;97553.41;;;18.82
11926;BMP180;6022;48.768;18.608;2023-08-01T11:33:56;97547.13;;;18.84
11926;BMP180;6022;48.768;18.608;2023-08-01T11:36:30;97551.63;;;18.82
11926;BMP180;6022;48.768;18.608;2023-08-01T11:39:00;97549.63;;;18.70
11926;BMP180;6022;48.768;18.608;2023-08-01T11:41:29;97550.56;;;18.69
11926;BMP180;6022;48.768;18.608;2023-08-01T11:44:02;97555.59;;;18.54
11926;BMP180;6022;48.768;18.608;2023-08-01T11:46:32;97552.19;;;18.62
11926;BMP180;6022;48.768;18.608;2023-08-01T11:49:00;97556.44;;;18.55
11926;BMP180;6022;48.768;18.608;2023-08-01T11:51:29;97557.09;;;18.41
11926;BMP180;6022;48.768;18.608;2023-08-01T11:54:04;97553.78;;;18.33
11926;BMP180;6022;48.768;18.608;2023-08-01T11:56:31;97537.88;;;18.29
11926;BMP180;6022;48.768;18.608;2023-08-01T11:58:59;97541.09;;;18.31
11926;BMP180;6022;48.768;18.608;2023-08-01T12:01:45;97533.06;;;18.34
11926;BMP180;6022;48.768;18.608;2023-08-01T12:04:27;97525.09;;;18.21
11926;BMP180;6022;48.768;18.608;2023-08-01T12:06:55;97525.69;;;18.31
11926;BMP180;6022;48.768;18.608;2023-08-01T12:09:32;97519.44;;;18.26
11926;BMP180;6022;48.768;18.608;2023-08-01T12:12:00;97508.97;;;18.35
11926;BMP180;6022;48.768;18.608;2023-08-01T12:14:31;97511.53;;;18.35
11926;BMP180;6022;48.768;18.608;2023-08-01T12:17:11;97534.81;;;18.42
11926;BMP180;6022;48.768;18.608;2023-08-01T12:19:39;97526.28;;;18.41
11926;BMP180;6022;48.768;18.608;2023-08-01T12:22:06;97510.19;;;18.47
11926;BMP180;6022;48.768;18.608;2023-08-01T12:24:33;97508.56;;;18.54
11926;BMP180;6022;48.768;18.608;2023-08-01T12:27:10;97508.56;;;18.54
11926;BMP180;6022;48.768;18.608;2023-08-01T12:29:37;97510.81;;;18.57
11926;BMP180;6022;48.768;18.608;2023-08-01T12:32:05;97514.97;;;18.58
11926;BMP180;6022;48.768;18.608;2023-08-01T12:34:35;97517.91;;;18.55
11926;BMP180;6022;48.768;18.608;2023-08-01T12:37:03;97512.09;;;18.61
11926;BMP180;6022;48.768;18.608;2023-08-01T12:39:31;97504.66;;;18.66
11926;BMP180;6022;48.768;18.608;2023-08-01T12:41:58;97499.81;;;18.71
11926;BMP180;6022;48.768;18.608;2023-08-01T12:44:26;97499.88;;;18.63
11926;BMP180;6022;48.768;18.608;2023-08-01T12:46:53;97499.50;;;18.66
11926;BMP180;6022;48.768;18.608;2023-08-01T12:49:21;97505.59;;;18.73
11926;BMP180;6022;48.768;18.608;2023-08-01T12:51:49;97490.97;;;18.73
11926;BMP180;6022;48.768;18.608;2023-08-01T12:54:18;97492.69;;;18.81
11926;BMP180;6022;48.768;18.608;2023-08-01T12:56:48;97484.34;;;18.79
11926;BMP180;6022;48.768;18.608;2023-08-01T12:59:15;97482.59;;;18.79
11926;BMP180;6022;48.768;18.608;2023-08-01T13:01:43;97482.38;;;18.89
11926;BMP180;6022;48.768;18.608;2023-08-01T13:04:12;97464.19;;;18.98
11926;BMP180;6022;48.768;18.608;2023-08-01T13:06:40;97460.31;;;19.02
11926;BMP180;6022;48.768;18.608;2023-08-01T13:09:08;97458.63;;;19.09
11926;BMP180;6022;48.768;18.608;2023-08-01T13:11:43;97456.34;;;19.14
11926;BMP180;6022;48.768;18.608;2023-08-01T13:14:10;97462.13;;;19.16
11926;BMP180;6022;48.768;18.608;2023-08-01T13:16:37;97469.38;;;19.12
11926;BMP180;6022;48.768;18.608;2023-08-01T13:19:14;97472.53;;;19.00
11926;BMP180;6022;48.768;18.608;2023-08-01T13:21:42;97469.50;;;18.96
11926;BMP180;6022;48.768;18.608;2023-08-01T13:24:09;97467.63;;;18.83
11926;BMP180;6022;48.768;18.608;2023-08-01T13:26:37;97463.00;;;18.78
11926;BMP180;6022;48.768;18.608;2023-08-01T13:29:05;97465.88;;;18.83
11926;BMP180;6022;48.768;18.608;2023-08-01T13:31:32;97462.38;;;18.76
11926;BMP180;6022;48.768;18.608;2023-08-01T13:34:01;97454.56;;;18.70
11926;BMP180;6022;48.768;18.608;2023-08-01T13:36:28;97448.50;;;18.63
11926;BMP180;6022;48.768;18.608;2023-08-01T13:38:56;97455.25;;;18.56
11926;BMP180;6022;48.768;18.608;2023-08-01T13:41:23;97458.41;;;18.66
11926;BMP180;6022;48.768;18.608;2023-08-01T13:43:51;97449.16;;;18.57
11926;BMP180;6022;48.768;18.608;2023-08-01T13:46:19;97441.56;;;18.63
11926;BMP180;6022;48.768;18.608;2023-08-01T13:48:59;97446.19;;;18.68
11926;BMP180;6022;48.768;18.608;2023-08-01T13:51:27;97456.66;;;18.66
11926;BMP180;6022;48.768;18.608;2023-08-01T13:53:59;97453.16;;;18.59
11926;BMP180;6022;48.768;18.608;2023-08-01T13:56:26;97455.88;;;18.58
11926;BMP180;6022;48.768;18.608;2023-08-01T13:58:54;97451.31;;;18.46
11926;BMP180;6022;48.768;18.608;2023-08-01T14:01:21;97455.63;;;18.45
11926;BMP180;6022;48.768;18.608;2023-08-01T14:03:49;97434.78;;;18.48
11926;BMP180;6022;48.768;18.608;2023-08-01T14:06:16;97447.22;;;18.59
11926;BMP180;6022;48.768;18.608;2023-08-01T14:08:44;97447.34;;;18.65
11926;BMP180;6022;48.768;18.608;2023-08-01T14:11:11;97432.41;;;18.69
11926;BMP180;6022;48.768;18.608;2023-08-01T14:13:39;97434.16;;;18.68
11926;BMP180;6022;48.768;18.608;2023-08-01T14:16:08;97446.66;;;18.71
11926;BMP180;6022;48.768;18.608;2023-08-01T14:18:35;97443.59;;;18.76
11926;BMP180;6022;48.768;18.608;2023-08-01T14:21:05;97442.59;;;18.77
11926;BMP180;6022;48.768;18.608;2023-08-01T14:23:33;97445.19;;;18.77
11926;BMP180;6022;48.768;18.608;2023-08-01T14:26:00;97445.81;;;18.79
11926;BMP180;6022;48.768;18.608;2023-08-01T14:28:28;97438.09;;;18.79
11926;BMP180;6022;48.768;18.608;2023-08-01T14:30:56;97432.06;;;18.72
11926;BMP180;6022;48.768;18.608;2023-08-01T14:33:23;97442.78;;;18.75
11926;BMP180;6022;48.768;18.608;2023-08-01T14:35:50;97446.31;;;18.74